Time;durP1;ratioP1;P1;durP2;ratioP2;P2;SDS_P1;SDS_P2;PMS_P1;PMS_P2;Temp;Humidity;BMP_temperature;BMP_pressure;BME280_temperature;BME280_humidity;BME280_pressure;Samples;Min_cycle;Max_cycle;Signal;HPM_P1;HPM_P2
2023/11/10 00:01:01;;;;;;;13.80;9.00;;;;;;;-0.84;100.00;97495.72;110363;1241;69743;-65
2023/11/10 00:03:51;;;;;;;11.90;8.40;;;;;;;-0.85;100.00;97491.30;110273;1240;60556;-65
2023/11/10 00:06:22;;;;;;;12.60;8.60;;;;;;;-0.83;100.00;97487.48;110340;1238;60500;-65
2023/11/10 00:08:54;;;;;;;13.70;8.70;;;;;;;-0.78;100.00;97490.77;110450;1241;71379;-65
2023/11/10 00:11:26;;;;;;;9.50;7.50;;;;;;;-0.76;100.00;97489.69;110418;1241;69149;-65
2023/11/10 00:13:56;;;;;;;13.00;9.60;;;;;;;-0.76;100.00;97488.15;110416;1241;69236;-65
2023/11/10 00:16:45;;;;;;;9.80;7.40;;;;;;;-0.81;100.00;97479.23;110369;1240;60569;-65
2023/11/10 00:19:15;;;;;;;9.50;7.00;;;;;;;-0.83;100.00;97474.30;110386;1241;60535;-64
2023/11/10 00:21:51;;;;;;;11.90;7.90;;;;;;;-0.84;100.00;97467.65;110365;1241;71457;-65
2023/11/10 00:24:23;;;;;;;9.90;7.50;;;;;;;-0.87;100.00;97469.11;110461;1239;68591;-65
2023/11/10 00:26:53;;;;;;;9.30;7.00;;;;;;;-0.90;100.00;97467.83;110447;1241;68304;-65
2023/11/10 00:29:25;;;;;;;10.60;6.50;;;;;;;-0.93;100.00;97465.15;110481;1241;60950;-65
2023/11/10 00:31:57;;;;;;;10.00;7.20;;;;;;;-0.95;100.00;97460.78;110373;1241;60421;-65
2023/11/10 00:34:28;;;;;;;8.00;5.80;;;;;;;-0.97;100.00;97455.36;110363;1241;71100;-65
2023/11/10 00:36:59;;;;;;;9.30;6.70;;;;;;;-0.99;100.00;97453.70;110410;1241;69247;-65
2023/11/10 00:39:31;;;;;;;10.90;7.00;;;;;;;-1.01;100.00;97451.85;110354;1241;67807;-65
2023/11/10 00:42:02;;;;;;;6.60;5.30;;;;;;;-0.98;100.00;97452.30;110411;1241;60484;-65
2023/11/10 00:44:34;;;;;;;9.00;6.50;;;;;;;-0.95;100.00;97454.94;110273;1238;60602;-65
2023/11/10 00:47:07;;;;;;;6.50;5.20;;;;;;;-0.94;100.00;97455.42;110483;1241;72013;-65
2023/11/10 00:49:39;;;;;;;7.00;5.90;;;;;;;-0.97;100.00;97454.66;110450;1240;68477;-65
2023/11/10 00:52:11;;;;;;;6.00;4.30;;;;;;;-1.00;100.00;97456.80;110451;1241;69250;-64
2023/11/10 00:54:46;;;;;;;6.80;5.10;;;;;;;-1.05;100.00;97460.66;110513;1241;60491;-64
2023/11/10 00:57:17;;;;;;;7.70;6.10;;;;;;;-1.10;100.00;97458.58;110544;1241;60466;-64
2023/11/10 00:59:49;;;;;;;9.40;5.70;;;;;;;-1.15;100.00;97453.59;110391;1241;72010;-64
2023/11/10 01:02:21;;;;;;;7.50;5.70;;;;;;;-1.22;100.00;97458.04;110306;1240;68592;-64
2023/11/10 01:04:53;;;;;;;8.80;5.80;;;;;;;-1.29;100.00;97455.30;110292;1240;69277;-64
2023/11/10 01:07:24;;;;;;;6.20;5.00;;;;;;;-1.31;100.00;97450.20;110504;1241;60561;-64
2023/11/10 01:09:56;;;;;;;8.00;6.10;;;;;;;-1.23;100.00;97446.27;110547;1241;60489;-64
2023/11/10 01:12:28;;;;;;;7.30;4.90;;;;;;;-1.25;100.00;97447.84;110475;1241;72479;-64
2023/11/10 01:14:58;;;;;;;8.40;5.90;;;;;;;-1.28;100.00;97443.15;110472;1239;67639;-64
2023/11/10 01:17:31;;;;;;;9.10;6.10;;;;;;;-1.31;100.00;97443.89;110542;1241;69343;-65
2023/11/10 01:20:10;;;;;;;7.00;4.60;;;;;;;-1.35;100.00;97439.36;110499;1241;60531;-64
2023/11/10 01:22:41;;;;;;;6.00;5.40;;;;;;;-1.38;100.00;97440.14;110482;1241;60508;-64
2023/11/10 01:25:14;;;;;;;8.00;5.70;;;;;;;-1.41;100.00;97435.94;110519;1240;71443;-64
2023/11/10 01:27:46;;;;;;;7.20;5.50;;;;;;;-1.45;100.00;97427.16;110459;1241;69275;-64
2023/11/10 01:30:19;;;;;;;8.60;6.10;;;;;;;-1.48;100.00;97423.13;110373;1241;70229;-63
2023/11/10 01:32:49;;;;;;;6.60;5.50;;;;;;;-1.52;100.00;97419.46;110320;1241;60569;-64
2023/11/10 01:35:23;;;;;;;7.70;6.30;;;;;;;-1.57;100.00;97412.39;110293;1242;60502;-64
2023/11/10 01:37:55;;;;;;;8.20;5.40;;;;;;;-1.60;100.00;97407.01;110281;1241;72243;-64
2023/11/10 01:40:28;;;;;;;7.50;6.50;;;;;;;-1.62;100.00;97403.11;110535;1240;68580;-64
2023/11/10 01:43:07;;;;;;;7.70;5.60;;;;;;;-1.61;100.00;97408.05;110483;1241;69309;-64
2023/11/10 01:45:40;;;;;;;7.80;6.50;;;;;;;-1.61;100.00;97408.56;110489;1241;60469;-64
2023/11/10 01:48:13;;;;;;;8.70;6.90;;;;;;;-1.64;100.00;97410.70;110479;1240;60503;-65
2023/11/10 01:50:50;;;;;;;7.80;6.10;;;;;;;-1.67;100.00;97413.16;110524;1242;72229;-65
2023/11/10 01:53:22;;;;;;;7.90;6.00;;;;;;;-1.70;100.00;97412.90;110541;1241;69090;-65
2023/11/10 01:55:57;;;;;;;9.30;7.00;;;;;;;-1.73;100.00;97409.20;110469;1240;68499;-65
2023/11/10 01:58:31;;;;;;;8.20;6.60;;;;;;;-1.74;100.00;97409.23;110429;1240;60464;-65
2023/11/10 02:01:08;;;;;;;8.00;6.20;;;;;;;-1.80;100.00;97402.35;110471;1241;60473;-65
2023/11/10 02:03:41;;;;;;;8.50;7.20;;;;;;;-1.83;100.00;97404.48;110398;1240;71221;-64
2023/11/10 02:06:13;;;;;;;9.70;6.30;;;;;;;-1.87;100.00;97399.80;110376;1241;69186;-65
2023/11/10 02:08:46;;;;;;;7.90;5.50;;;;;;;-1.90;100.00;97396.78;110252;1242;68527;-65
2023/11/10 02:11:25;;;;;;;7.40;5.90;;;;;;;-1.92;100.00;97391.55;110466;1241;60479;-66
2023/11/10 02:14:01;;;;;;;7.00;6.20;;;;;;;-1.93;100.00;97387.30;110297;1242;60420;-65
2023/11/10 02:16:40;;;;;;;9.90;6.90;;;;;;;-1.94;100.00;97389.36;110460;1241;72033;-64
2023/11/10 02:19:15;;;;;;;6.30;5.10;;;;;;;-1.94;100.00;97387.99;110342;1238;68556;-65
2023/11/10 02:21:53;;;;;;;7.60;5.80;;;;;;;-1.93;100.00;97381.33;110489;1242;69410;-65
2023/11/10 02:24:27;;;;;;;6.20;4.30;;;;;;;-1.94;100.00;97383.39;110437;1241;60503;-65
2023/11/10 02:26:57;;;;;;;8.60;5.50;;;;;;;-1.93;100.00;97379.27;110543;1241;60844;-65
2023/11/10 02:29:29;;;;;;;7.60;5.60;;;;;;;-1.91;100.00;97375.80;110570;1241;72285;-64
2023/11/10 02:32:03;;;;;;;9.40;5.70;;;;;;;-1.91;100.00;97375.29;110581;1240;67602;-65
2023/11/10 02:34:34;;;;;;;7.00;5.30;;;;;;;-1.93;100.00;97371.08;110487;1238;69121;-65
2023/11/10 02:37:13;;;;;;;6.00;4.20;;;;;;;-1.93;100.00;97373.96;110582;1241;60535;-64
2023/11/10 02:39:46;;;;;;;6.50;5.10;;;;;;;-2.03;100.00;97370.27;110399;1241;60477;-63
2023/11/10 02:42:17;;;;;;;7.50;5.00;;;;;;;-2.16;100.00;97368.52;110399;1240;72469;-64
2023/11/10 02:44:49;;;;;;;6.80;5.20;;;;;;;-2.19;100.00;97361.08;110389;1241;68607;-63
2023/11/10 02:47:25;;;;;;;9.50;7.00;;;;;;;-2.19;100.00;97355.44;110436;1241;68520;-66
2023/11/10 02:49:57;;;;;;;7.00;6.10;;;;;;;-2.19;100.00;97353.08;110485;1241;60492;-66
2023/11/10 02:52:27;;;;;;;9.40;6.10;;;;;;;-2.20;100.00;97352.93;110453;1241;60463;-64
2023/11/10 02:54:59;;;;;;;6.10;4.30;;;;;;;-2.20;100.00;97349.85;110369;1241;72159;-65
2023/11/10 02:57:30;;;;;;;6.00;5.00;;;;;;;-2.21;100.00;97354.31;110342;1241;69050;-65
2023/11/10 03:00:05;;;;;;;7.30;4.90;;;;;;;-2.24;100.00;97353.33;110585;1238;68651;-65
2023/11/10 03:02:37;;;;;;;6.90;5.70;;;;;;;-2.26;100.00;97355.45;110522;1240;60512;-65
2023/11/10 03:05:13;;;;;;;6.90;4.90;;;;;;;-2.28;100.00;97346.63;110542;1241;60470;-66
2023/11/10 03:07:44;;;;;;;6.50;5.00;;;;;;;-2.31;100.00;97353.85;110609;1241;71451;-66
2023/11/10 03:10:16;;;;;;;6.50;5.30;;;;;;;-2.34;100.00;97354.09;110559;1239;69345;-65
2023/11/10 03:12:48;;;;;;;7.30;4.70;;;;;;;-2.38;100.00;97352.63;110415;1241;67607;-64
2023/11/10 03:15:21;;;;;;;5.90;4.70;;;;;;;-2.40;100.00;97357.96;110353;1241;60606;-64
2023/11/10 03:17:53;;;;;;;6.00;4.60;;;;;;;-2.42;100.00;97359.73;110396;1241;60498;-66
2023/11/10 03:20:25;;;;;;;5.90;4.50;;;;;;;-2.44;100.00;97350.90;110349;1239;72022;-64
2023/11/10 03:22:58;;;;;;;6.40;4.50;;;;;;;-2.45;100.00;97348.35;110368;1240;69101;-64
2023/11/10 03:25:29;;;;;;;5.60;4.40;;;;;;;-2.46;100.00;97350.77;110453;1247;69271;-64
2023/11/10 03:28:02;;;;;;;5.40;3.90;;;;;;;-2.47;100.00;97351.48;110434;1241;60516;-64
2023/11/10 03:30:40;;;;;;;3.90;3.40;;;;;;;-2.49;100.00;97348.45;110495;1241;60492;-64
2023/11/10 03:33:11;;;;;;;5.20;3.90;;;;;;;-2.52;100.00;97344.23;110424;1239;71417;-64
2023/11/10 03:35:45;;;;;;;4.40;3.80;;;;;;;-2.54;100.00;97338.83;110300;1243;69239;-64
2023/11/10 03:38:16;;;;;;;5.10;3.70;;;;;;;-2.55;100.00;97333.03;110481;1240;69110;-64
2023/11/10 03:40:47;;;;;;;6.00;4.10;;;;;;;-2.53;100.00;97327.53;110260;1241;60602;-64
2023/11/10 03:43:17;;;;;;;4.20;3.40;;;;;;;-2.51;100.00;97326.65;110310;1241;60466;-64
2023/11/10 03:45:48;;;;;;;5.30;3.50;;;;;;;-2.50;100.00;97326.45;110470;1241;70636;-62
2023/11/10 03:48:19;;;;;;;5.10;3.60;;;;;;;-2.51;100.00;97323.05;110396;1241;69244;-64
2023/11/10 03:50:50;;;;;;;4.20;3.40;;;;;;;-2.52;100.00;97322.73;110470;1240;69353;-64
2023/11/10 03:53:20;;;;;;;;;;;;;;;-2.52;100.00;97327.69;110477;1239;60481;-64
2023/11/10 03:55:51;;;;;;;8.90;6.10;;;;;;;-2.54;100.00;97327.40;110506;1241;60474;-64
2023/11/10 03:58:23;;;;;;;6.00;4.80;;;;;;;-2.59;100.00;97328.00;110527;1241;72014;-64
2023/11/10 04:00:55;;;;;;;6.90;5.80;;;;;;;-2.61;100.00;97322.59;110407;1240;69059;-64
2023/11/10 04:03:24;;;;;;;8.00;5.70;;;;;;;-2.59;100.00;97317.42;110329;1241;68506;-65
2023/11/10 04:05:56;;;;;;;7.00;5.50;;;;;;;-2.54;100.00;97313.40;110420;1241;60496;-64
2023/11/10 04:08:26;;;;;;;6.70;5.10;;;;;;;-2.52;100.00;97313.19;110408;1241;60939;-64
2023/11/10 04:10:56;;;;;;;5.80;4.20;;;;;;;-2.49;100.00;97316.73;110473;1240;71243;-64
2023/11/10 04:13:27;;;;;;;4.40;3.60;;;;;;;-2.48;100.00;97314.45;110365;1241;69278;-64
2023/11/10 04:15:57;;;;;;;;;;;;;;;-2.49;100.00;97308.16;110508;1241;69159;-64
2023/11/10 04:18:28;;;;;;;8.10;6.00;;;;;;;-2.55;100.00;97311.88;110375;1241;60538;-64
2023/11/10 04:20:59;;;;;;;7.00;5.00;;;;;;;-2.66;100.00;97308.36;110375;1241;60836;-64
2023/11/10 04:23:30;;;;;;;6.10;4.50;;;;;;;-2.72;100.00;97306.29;110340;1241;72211;-65
2023/11/10 04:26:01;;;;;;;7.20;4.80;;;;;;;-2.64;100.00;97307.48;110365;1241;69253;-64
2023/11/10 04:28:34;;;;;;;5.90;4.50;;;;;;;-2.54;100.00;97309.30;110363;1240;68977;-65
2023/11/10 04:31:06;;;;;;;5.00;4.50;;;;;;;-2.53;100.00;97307.06;110342;1240;60580;-64
2023/11/10 04:33:36;;;;;;;7.10;5.20;;;;;;;-2.51;100.00;97307.70;110273;1241;60486;-65
2023/11/10 04:36:12;;;;;;;7.10;4.40;;;;;;;-2.51;100.00;97300.54;110438;1241;71374;-64
2023/11/10 04:38:47;;;;;;;4.50;3.90;;;;;;;-2.51;100.00;97303.44;110444;1241;68393;-65
2023/11/10 04:41:22;;;;;;;6.30;4.60;;;;;;;-2.51;100.00;97315.20;110486;1239;69119;-65
2023/11/10 04:43:53;;;;;;;5.80;4.40;;;;;;;-2.52;100.00;97321.22;110377;1241;60515;-64
2023/11/10 04:46:23;;;;;;;6.10;4.40;;;;;;;-2.53;100.00;97326.20;110419;1241;60467;-64
2023/11/10 04:48:54;;;;;;;5.50;4.00;;;;;;;-2.54;100.00;97325.01;110331;1240;71486;-64
2023/11/10 04:51:29;;;;;;;5.30;4.20;;;;;;;-2.52;100.00;97321.03;110412;1241;69224;-64
2023/11/10 04:53:59;;;;;;;6.90;5.10;;;;;;;-2.50;100.00;97318.25;110528;1240;68595;-64
2023/11/10 04:56:29;;;;;;;5.80;4.60;;;;;;;-2.48;100.00;97310.70;110330;1241;60499;-65
2023/11/10 04:58:58;;;;;;;5.50;5.00;;;;;;;-2.49;100.00;97309.54;110398;1241;60462;-66
2023/11/10 05:01:28;;;;;;;8.50;5.90;;;;;;;-2.64;100.00;97313.79;110482;1240;71446;-64
2023/11/10 05:03:59;;;;;;;8.70;7.00;;;;;;;-2.66;100.00;97315.20;110392;1241;69371;-64
2023/11/10 05:06:30;;;;;;;6.60;4.50;;;;;;;-2.67;100.00;97313.17;110543;1241;68504;-66
2023/11/10 05:09:00;;;;;;;7.70;4.70;;;;;;;-2.67;100.00;97314.55;110449;1241;61393;-66
2023/11/10 05:11:30;;;;;;;6.70;4.80;;;;;;;-2.68;100.00;97319.33;110386;1241;60499;-64
2023/11/10 05:14:00;;;;;;;9.40;7.30;;;;;;;-2.70;100.00;97323.98;110362;1239;71287;-65
2023/11/10 05:16:29;;;;;;;7.50;5.30;;;;;;;-2.68;100.00;97325.98;110439;1241;68483;-64
2023/11/10 05:18:59;;;;;;;7.80;6.10;;;;;;;-2.55;100.00;97325.19;110345;1240;69314;-64
2023/11/10 05:21:29;;;;;;;8.70;6.20;;;;;;;-2.41;100.00;97323.86;110502;1241;60808;-64
2023/11/10 05:23:58;;;;;;;10.00;6.20;;;;;;;-2.38;100.00;97329.95;110486;1241;60447;-65
2023/11/10 05:26:30;;;;;;;9.00;6.60;;;;;;;-2.43;100.00;97337.90;110483;1241;72220;-66
2023/11/10 05:29:00;;;;;;;9.50;6.20;;;;;;;-2.48;100.00;97338.52;110357;1241;69038;-64
2023/11/10 05:31:29;;;;;;;8.40;6.30;;;;;;;-2.52;100.00;97330.60;110330;1240;69309;-65
2023/11/10 05:33:59;;;;;;;8.10;5.80;;;;;;;-2.53;100.00;97334.89;110293;1239;60481;-66
2023/11/10 05:36:29;;;;;;;9.30;6.80;;;;;;;-2.54;100.00;97330.46;110385;1241;60467;-65
2023/11/10 05:38:58;;;;;;;11.90;6.40;;;;;;;-2.51;100.00;97328.19;110378;1246;72221;-64
2023/11/10 05:41:28;;;;;;;8.70;6.60;;;;;;;-2.46;100.00;97327.22;110361;1241;68578;-65
2023/11/10 05:43:57;;;;;;;8.30;5.90;;;;;;;-2.40;100.00;97320.77;110408;1241;67663;-65
2023/11/10 05:46:27;;;;;;;7.10;5.50;;;;;;;-2.35;100.00;97313.84;110411;1241;60866;-65
2023/11/10 05:48:57;;;;;;;8.70;6.30;;;;;;;-2.31;100.00;97309.27;110432;1244;60558;-64
2023/11/10 05:51:27;;;;;;;10.40;6.60;;;;;;;-2.27;100.00;97309.38;110502;1241;72846;-64
2023/11/10 05:53:56;;;;;;;7.50;5.70;;;;;;;-2.21;100.00;97311.61;110409;1241;69821;-64
2023/11/10 05:56:25;;;;;;;9.30;7.50;;;;;;;-2.15;100.00;97310.44;110423;1241;69274;-64
2023/11/10 05:58:55;;;;;;;7.60;6.30;;;;;;;-2.08;100.00;97314.70;110435;1241;61012;-64
2023/11/10 06:01:24;;;;;;;7.90;5.70;;;;;;;-1.98;100.00;97316.35;110425;1240;60531;-64
2023/11/10 06:03:56;;;;;;;5.60;4.90;;;;;;;-1.88;100.00;97317.81;110459;1240;72290;-64
2023/11/10 06:06:26;;;;;;;8.10;6.20;;;;;;;-1.80;100.00;97317.45;110534;1240;68506;-65
2023/11/10 06:08:56;;;;;;;10.00;7.30;;;;;;;-1.71;100.00;97308.85;110407;1241;69996;-64
2023/11/10 06:11:25;;;;;;;12.10;8.10;;;;;;;-1.63;100.00;97312.92;110423;1241;60522;-64
2023/11/10 06:14:00;;;;;;;9.20;7.40;;;;;;;-1.54;100.00;97316.09;110400;1241;60475;-64
2023/11/10 06:16:30;;;;;;;10.00;7.00;;;;;;;-1.43;100.00;97313.25;110427;1241;72188;-64
2023/11/10 06:18:59;;;;;;;11.40;7.70;;;;;;;-1.33;100.00;97308.37;110478;1240;68476;-64
2023/11/10 06:21:29;;;;;;;10.10;7.70;;;;;;;-1.22;100.00;97306.02;110484;1241;69882;-65
2023/11/10 06:23:58;;;;;;;9.00;7.40;;;;;;;-1.12;100.00;97307.80;110521;1241;60519;-65
2023/11/10 06:26:28;;;;;;;11.40;8.70;;;;;;;-1.05;100.00;97304.85;110502;1241;60507;-65
2023/11/10 06:28:58;;;;;;;;;;;;;;;-0.99;100.00;97310.48;110528;1239;71434;-65
2023/11/10 06:31:28;;;;;;;;;;;;;;;-0.96;100.00;97314.19;110371;1241;69958;-65
2023/11/10 06:33:58;;;;;;;11.70;8.60;;;;;;;-0.89;100.00;97313.98;110440;1239;68403;-65
2023/11/10 06:36:28;;;;;;;8.50;6.50;;;;;;;-0.81;100.00;97313.20;110570;1241;60601;-65
2023/11/10 06:38:58;;;;;;;13.10;7.40;;;;;;;-0.68;100.00;97312.17;110472;1240;60480;-65
2023/11/10 06:41:28;;;;;;;9.10;6.90;;;;;;;-0.56;100.00;97313.52;110560;1240;72153;-65
2023/11/10 06:43:58;;;;;;;10.20;8.10;;;;;;;-0.44;100.00;97313.15;110474;1242;69106;-66
2023/11/10 06:46:27;;;;;;;9.40;7.60;;;;;;;-0.32;100.00;97314.67;110481;1241;69114;-66
2023/11/10 06:48:58;;;;;;;10.70;8.60;;;;;;;-0.17;100.00;97311.29;110512;1247;60938;-67
2023/11/10 06:51:27;;;;;;;11.40;8.90;;;;;;;-0.00;100.00;97306.14;110503;1241;60454;-66
2023/11/10 06:53:56;;;;;;;17.30;11.30;;;;;;;0.14;100.00;97299.67;110497;1241;73121;-67
2023/11/10 06:56:26;;;;;;;13.90;10.90;;;;;;;0.25;100.00;97291.77;110541;1239;69879;-67
2023/11/10 06:58:55;;;;;;;14.30;10.90;;;;;;;0.37;100.00;97286.70;110471;1241;68669;-66
2023/11/10 07:01:24;;;;;;;15.50;10.70;;;;;;;0.53;100.00;97288.41;110440;1241;60525;-67
2023/11/10 07:03:53;;;;;;;13.10;9.70;;;;;;;0.70;100.00;97286.42;110504;1240;60465;-66
2023/11/10 07:06:23;;;;;;;12.30;8.50;;;;;;;0.90;100.00;97286.92;110497;1240;72776;-67
2023/11/10 07:08:52;;;;;;;8.60;6.90;;;;;;;1.25;100.00;97284.95;110472;1241;69827;-67
2023/11/10 07:11:22;;;;;;;6.90;5.90;;;;;;;1.54;100.00;97285.53;110525;1241;69297;-67
2023/11/10 07:13:51;;;;;;;8.90;5.40;;;;;;;1.88;100.00;97282.48;110517;1241;60503;-67
2023/11/10 07:16:21;;;;;;;7.10;5.40;;;;;;;2.22;100.00;97281.44;110371;1241;60431;-67
2023/11/10 07:18:52;;;;;;;7.40;5.30;;;;;;;2.52;100.00;97275.88;110298;1241;71523;-67
2023/11/10 07:21:22;;;;;;;8.10;5.80;;;;;;;2.66;100.00;97269.59;110301;1241;69210;-66
2023/11/10 07:23:51;;;;;;;8.00;6.30;;;;;;;2.77;100.00;97270.31;110433;1241;68726;-65
2023/11/10 07:26:21;;;;;;;7.80;6.40;;;;;;;2.93;100.00;97262.40;110484;1242;60547;-65
2023/11/10 07:28:51;;;;;;;10.50;9.10;;;;;;;3.15;100.00;97261.58;110472;1241;60528;-65
2023/11/10 07:31:20;;;;;;;9.90;8.40;;;;;;;3.31;100.00;97253.10;110344;1241;71746;-65
2023/11/10 07:33:50;;;;;;;9.60;8.60;;;;;;;3.37;100.00;97249.02;110398;1241;68544;-65
2023/11/10 07:36:20;;;;;;;;;;;;;;;3.43;100.00;97250.80;110383;1241;69855;-67
2023/11/10 07:38:49;;;;;;;11.30;9.30;;;;;;;3.54;100.00;97245.83;110333;1241;60564;-65
2023/11/10 07:41:19;;;;;;;14.70;12.20;;;;;;;3.60;100.00;97241.05;110398;1241;60531;-65
2023/11/10 07:43:49;;;;;;;14.20;12.60;;;;;;;3.67;100.00;97237.13;110507;1241;72784;-67
2023/11/10 07:46:19;;;;;;;12.90;11.50;;;;;;;3.78;100.00;97230.73;110472;1241;68659;-66
2023/11/10 07:48:49;;;;;;;14.30;12.00;;;;;;;3.92;100.00;97222.97;110354;1241;69953;-66
2023/11/10 07:51:18;;;;;;;14.20;10.90;;;;;;;4.05;100.00;97216.08;110446;1241;60486;-66
2023/11/10 07:53:47;;;;;;;12.50;11.10;;;;;;;4.18;100.00;97216.35;110492;1244;60534;-66
2023/11/10 07:56:16;;;;;;;13.00;11.50;;;;;;;4.33;100.00;97217.80;110373;1241;73006;-64
2023/11/10 07:58:45;;;;;;;10.80;9.20;;;;;;;4.38;100.00;97219.64;110446;1241;69725;-65
2023/11/10 08:01:14;;;;;;;10.90;8.50;;;;;;;4.36;100.00;97216.45;110486;1241;69089;-65
2023/11/10 08:03:44;;;;;;;11.30;8.50;;;;;;;4.40;100.00;97210.74;110397;1241;60468;-65
2023/11/10 08:06:14;;;;;;;12.20;9.40;;;;;;;4.49;100.00;97210.07;110365;1241;60530;-64
2023/11/10 08:08:43;;;;;;;11.80;9.20;;;;;;;4.57;100.00;97210.52;110390;1248;71830;-65
2023/11/10 08:11:12;;;;;;;12.90;10.30;;;;;;;4.65;100.00;97212.88;110402;1240;68536;-64
2023/11/10 08:13:41;;;;;;;14.20;10.20;;;;;;;4.76;100.00;97209.70;110367;1248;68367;-65
2023/11/10 08:16:10;;;;;;;12.50;10.40;;;;;;;4.87;100.00;97210.48;110357;1241;60537;-64
2023/11/10 08:18:40;;;;;;;13.20;10.20;;;;;;;5.02;100.00;97205.20;110449;1240;60478;-65
2023/11/10 08:21:19;;;;;;;14.30;10.10;;;;;;;5.18;100.00;97197.84;110402;1240;72047;-64
2023/11/10 08:23:48;;;;;;;13.90;10.50;;;;;;;5.32;99.94;97198.59;110330;1241;69836;-65
2023/11/10 08:26:18;;;;;;;13.70;10.40;;;;;;;5.45;99.94;97190.96;110384;1240;68915;-66
2023/11/10 08:28:48;;;;;;;13.50;9.70;;;;;;;5.53;99.36;97189.08;110329;1241;60544;-66
2023/11/10 08:31:22;;;;;;;18.40;13.20;;;;;;;5.51;99.84;97186.60;110408;1241;60999;-66
2023/11/10 08:33:51;;;;;;;21.70;16.30;;;;;;;5.37;100.00;97185.37;110491;1241;71263;-66
2023/11/10 08:36:22;;;;;;;17.50;14.30;;;;;;;5.46;100.00;97183.42;110409;1241;69884;-65
2023/11/10 08:38:52;;;;;;;17.00;12.30;;;;;;;5.61;100.00;97181.25;110315;1242;69309;-64
2023/11/10 08:41:22;;;;;;;17.00;14.00;;;;;;;5.75;100.00;97182.52;110432;1240;60488;-65
2023/11/10 08:43:51;;;;;;;16.60;12.70;;;;;;;5.87;100.00;97179.23;110520;1241;60465;-64
2023/11/10 08:46:20;;;;;;;17.20;13.40;;;;;;;5.97;100.00;97175.40;110500;1239;72453;-67
2023/11/10 08:48:51;;;;;;;27.50;20.30;;;;;;;5.92;100.00;97178.95;110411;1241;69109;-64
2023/11/10 08:51:20;;;;;;;23.20;18.20;;;;;;;5.88;100.00;97179.33;110503;1241;69510;-64
2023/11/10 08:53:50;;;;;;;19.50;15.20;;;;;;;5.95;100.00;97175.84;110501;1241;60481;-64
2023/11/10 08:56:20;;;;;;;24.90;19.50;;;;;;;6.10;100.00;97175.01;110420;1241;60531;-64
2023/11/10 08:58:49;;;;;;;20.00;16.00;;;;;;;6.17;99.97;97175.24;110399;1239;72200;-64
2023/11/10 09:01:18;;;;;;;16.70;14.70;;;;;;;6.16;99.96;97169.28;110417;1240;68142;-64
2023/11/10 09:03:48;;;;;;;14.80;12.20;;;;;;;5.98;99.86;97164.27;110368;1241;68530;-64
2023/11/10 09:06:17;;;;;;;13.30;10.60;;;;;;;6.11;100.00;97156.08;110360;1244;60548;-64
2023/11/10 09:08:46;;;;;;;11.00;9.70;;;;;;;6.51;99.88;97152.46;110430;1241;60537;-64
2023/11/10 09:11:16;;;;;;;13.40;10.40;;;;;;;6.99;97.66;97150.88;110418;1242;72800;-65
2023/11/10 09:13:45;;;;;;;13.70;10.80;;;;;;;7.68;93.71;97149.45;110283;1239;68558;-64
2023/11/10 09:16:17;;;;;;;15.20;12.00;;;;;;;8.35;89.77;97146.19;110424;1241;68506;-65
2023/11/10 09:18:47;;;;;;;15.30;11.30;;;;;;;8.96;83.53;97136.10;110446;1241;60528;-66
2023/11/10 09:21:16;;;;;;;11.40;9.50;;;;;;;9.49;79.99;97136.24;110023;1241;610821;-66
2023/11/10 09:23:45;;;;;;;11.10;9.10;;;;;;;9.94;79.27;97136.80;110428;1240;72144;-63
2023/11/10 09:26:14;;;;;;;9.60;8.60;;;;;;;10.38;76.80;97134.39;110407;1241;69150;-63
2023/11/10 09:28:47;;;;;;;9.80;7.70;;;;;;;11.04;77.08;97134.27;110393;1240;68625;-63
2023/11/10 09:31:17;;;;;;;10.00;6.20;;;;;;;11.03;69.89;97129.88;110367;1239;60514;-66
2023/11/10 09:33:46;;;;;;;7.30;5.30;;;;;;;11.14;66.92;97128.96;110403;1241;60476;-66
2023/11/10 09:36:18;;;;;;;8.00;5.00;;;;;;;11.09;64.64;97120.27;110534;1241;71651;-66
2023/11/10 09:38:47;;;;;;;6.80;4.00;;;;;;;11.39;60.21;97110.73;110564;1241;69131;-65
2023/11/10 09:41:21;;;;;;;6.10;3.50;;;;;;;11.83;59.98;97111.36;110527;1241;69244;-66
2023/11/10 09:43:53;;;;;;;5.10;3.50;;;;;;;11.94;56.26;97105.95;110545;1240;60486;-65
2023/11/10 09:46:23;;;;;;;5.80;4.10;;;;;;;12.24;55.03;97100.09;110500;1241;60499;-65
2023/11/10 09:48:55;;;;;;;5.50;3.90;;;;;;;12.36;54.46;97095.59;110440;1240;72939;-65
2023/11/10 09:51:25;;;;;;;4.10;3.20;;;;;;;12.32;55.71;97096.27;110502;1238;69804;-65
2023/11/10 09:53:58;;;;;;;4.00;2.90;;;;;;;11.89;52.43;97096.41;110525;1241;68349;-66
2023/11/10 09:56:28;;;;;;;4.80;3.00;;;;;;;11.90;52.27;97093.66;110448;1243;60522;-65
2023/11/10 09:58:59;;;;;;;9.00;3.50;;;;;;;12.04;51.90;97095.65;110515;1241;60577;-65
2023/11/10 10:01:29;;;;;;;6.50;4.10;;;;;;;12.16;51.59;97088.55;110366;1240;72776;-65
2023/11/10 10:03:58;;;;;;;5.40;3.80;;;;;;;12.31;50.85;97085.38;110378;1247;69901;-65
2023/11/10 10:06:28;;;;;;;5.70;3.60;;;;;;;12.77;50.67;97066.17;110408;1243;68221;-67
2023/11/10 10:09:01;;;;;;;6.50;4.70;;;;;;;13.18;49.41;97067.13;110388;1241;60471;-65
2023/11/10 10:11:32;;;;;;;4.80;4.20;;;;;;;13.32;50.23;97077.30;110505;1244;60529;-64
2023/11/10 10:14:02;;;;;;;7.70;4.50;;;;;;;13.01;48.43;97076.46;110487;1240;72735;-66
2023/11/10 10:16:33;;;;;;;6.90;4.60;;;;;;;12.48;50.35;97070.09;110461;1241;69261;-67
2023/11/10 10:19:04;;;;;;;7.10;5.20;;;;;;;11.86;51.31;97070.02;110417;1241;69839;-66
2023/11/10 10:21:41;;;;;;;5.90;4.20;;;;;;;11.35;52.29;97068.69;110464;1240;60486;-65
2023/11/10 10:24:10;;;;;;;6.30;4.10;;;;;;;11.22;53.50;97062.38;110435;1241;60464;-66
2023/11/10 10:26:39;;;;;;;7.10;4.20;;;;;;;11.31;52.83;97059.64;110575;1240;73067;-64
2023/11/10 10:29:09;;;;;;;5.90;4.00;;;;;;;11.29;52.78;97051.75;110428;1241;70165;-67
2023/11/10 10:31:38;;;;;;;5.60;4.00;;;;;;;11.31;53.13;97041.13;110552;1240;69114;-66
2023/11/10 10:34:07;;;;;;;7.80;3.60;;;;;;;11.28;51.57;97032.81;110424;1241;60434;-66
2023/11/10 10:36:38;;;;;;;5.30;3.40;;;;;;;11.24;51.65;97021.06;110548;1241;60489;-66
2023/11/10 10:39:12;;;;;;;4.90;3.30;;;;;;;11.29;52.61;97015.84;110455;1241;71559;-66
2023/11/10 10:41:46;;;;;;;4.20;3.30;;;;;;;11.28;52.08;97004.02;110550;1241;68316;-66
2023/11/10 10:44:19;;;;;;;4.00;2.90;;;;;;;11.20;52.29;96999.08;110473;1241;69302;-66
2023/11/10 10:46:50;;;;;;;3.60;2.30;;;;;;;11.06;49.19;96995.66;110477;1241;60450;-66
2023/11/10 10:49:21;;;;;;;2.90;1.90;;;;;;;11.01;48.57;97001.88;110364;1241;60482;-64
2023/11/10 10:51:54;;;;;;;3.10;2.10;;;;;;;10.90;48.52;97005.67;110440;1241;72299;-67
2023/11/10 10:54:24;;;;;;;2.10;1.70;;;;;;;10.93;47.70;97006.30;110411;1240;69216;-66
2023/11/10 10:56:55;;;;;;;3.60;2.30;;;;;;;11.02;49.50;97003.90;110419;1241;69244;-67
2023/11/10 10:59:27;;;;;;;3.40;2.50;;;;;;;11.14;49.49;97002.36;110415;1241;60473;-65
2023/11/10 11:01:58;;;;;;;2.60;1.80;;;;;;;11.26;49.16;96996.36;110144;1244;60434;-64
2023/11/10 11:04:29;;;;;;;5.00;2.80;;;;;;;11.44;48.29;96987.98;110416;1241;71494;-64
2023/11/10 11:07:41;;;;;;;3.70;2.40;;;;;;;11.64;48.88;96984.24;110406;1241;69262;-66
2023/11/10 11:10:46;;;;;;;2.80;2.00;;;;;;;12.00;47.72;96975.16;110403;1241;69158;-66
2023/11/10 11:13:25;;;;;;;4.30;2.70;;;;;;;12.39;47.14;96971.40;110367;1241;60450;-64
2023/11/10 11:16:28;;;;;;;4.00;2.20;;;;;;;13.31;46.59;96968.48;110525;1240;60930;-64
2023/11/10 11:19:31;;;;;;;3.10;2.40;;;;;;;14.20;46.67;96961.15;110411;1241;71326;-64
2023/11/10 11:22:01;;;;;;;3.80;2.20;;;;;;;14.45;41.52;96958.79;110455;1241;69796;-64
2023/11/10 11:24:31;;;;;;;1.90;1.60;;;;;;;14.77;41.19;96957.61;110230;1243;70259;-64
2023/11/10 11:27:00;;;;;;;;;;;;;;;15.15;43.78;96950.02;110133;1243;60501;-66
2023/11/10 11:29:40;;;;;;;2.60;1.50;;;;;;;15.47;41.38;96949.92;110285;1240;60509;-64
2023/11/10 11:32:19;;;;;;;2.00;1.40;;;;;;;15.60;40.35;96939.91;110256;1240;71463;-64
2023/11/10 11:34:52;;;;;;;3.50;1.80;;;;;;;15.49;37.40;96938.65;110315;1242;69319;-65
2023/11/10 11:37:29;;;;;;;3.10;1.70;;;;;;;15.31;39.53;96930.60;110266;1240;69774;-64
2023/11/10 11:40:01;;;;;;;2.70;1.40;;;;;;;15.14;39.55;96923.16;110306;1242;60475;-64